sensor_id;sensor_type;location;lat;lon;timestamp;P1;durP1;ratioP1;P2;durP2;ratioP2
43893;SDS011;29556;50.846;4.442;2022-10-20T00:00:59;3.42;;;1.38;;
43893;SDS011;29556;50.846;4.442;2022-10-20T00:03:27;9.63;;;1.83;;
43893;SDS011;29556;50.846;4.442;2022-10-20T00:05:53;2.63;;;1.20;;
43893;SDS011;29556;50.846;4.442;2022-10-20T00:08:19;4.60;;;1.83;;
43893;SDS011;29556;50.846;4.442;2022-10-20T00:10:55;3.33;;;1.45;;
43893;SDS011;29556;50.846;4.442;2022-10-20T00:13:22;3.67;;;1.52;;
43893;SDS011;29556;50.846;4.442;2022-10-20T00:15:51;2.10;;;1.25;;
43893;SDS011;29556;50.846;4.442;2022-10-20T00:18:20;8.90;;;1.35;;
43893;SDS011;29556;50.846;4.442;2022-10-20T00:20:47;2.05;;;1.45;;
43893;SDS011;29556;50.846;4.442;2022-10-20T00:23:13;2.40;;;1.80;;
43893;SDS011;29556;50.846;4.442;2022-10-20T00:25:39;6.57;;;1.25;;
43893;SDS011;29556;50.846;4.442;2022-10-20T00:28:05;3.30;;;0.95;;
43893;SDS011;29556;50.846;4.442;2022-10-20T00:30:32;1.63;;;1.35;;
43893;SDS011;29556;50.846;4.442;2022-10-20T00:32:58;3.30;;;1.75;;
43893;SDS011;29556;50.846;4.442;2022-10-20T00:35:24;3.88;;;1.95;;
43893;SDS011;29556;50.846;4.442;2022-10-20T00:37:50;4.20;;;1.75;;
43893;SDS011;29556;50.846;4.442;2022-10-20T00:40:18;2.58;;;1.35;;
43893;SDS011;29556;50.846;4.442;2022-10-20T00:42:44;1.48;;;1.30;;
43893;SDS011;29556;50.846;4.442;2022-10-20T00:45:11;2.72;;;1.10;;
43893;SDS011;29556;50.846;4.442;2022-10-20T00:47:45;2.55;;;1.58;;
43893;SDS011;29556;50.846;4.442;2022-10-20T00:50:22;2.35;;;1.30;;
43893;SDS011;29556;50.846;4.442;2022-10-20T00:52:52;2.30;;;1.20;;
43893;SDS011;29556;50.846;4.442;2022-10-20T00:55:22;4.15;;;1.92;;
43893;SDS011;29556;50.846;4.442;2022-10-20T00:57:55;2.22;;;1.38;;
43893;SDS011;29556;50.846;4.442;2022-10-20T01:00:22;3.33;;;2.15;;
43893;SDS011;29556;50.846;4.442;2022-10-20T01:02:53;2.70;;;1.35;;
43893;SDS011;29556;50.846;4.442;2022-10-20T01:05:23;5.70;;;1.40;;
43893;SDS011;29556;50.846;4.442;2022-10-20T01:07:50;4.28;;;1.90;;
43893;SDS011;29556;50.846;4.442;2022-10-20T01:10:16;8.25;;;1.58;;
43893;SDS011;29556;50.846;4.442;2022-10-20T01:18:13;1.55;;;1.27;;
43893;SDS011;29556;50.846;4.442;2022-10-20T01:29:28;3.95;;;1.60;;
43893;SDS011;29556;50.846;4.442;2022-10-20T01:32:18;2.58;;;1.13;;
43893;SDS011;29556;50.846;4.442;2022-10-20T01:40:30;3.25;;;1.52;;
43893;SDS011;29556;50.846;4.442;2022-10-20T01:43:02;3.40;;;1.52;;
43893;SDS011;29556;50.846;4.442;2022-10-20T01:45:33;3.70;;;1.30;;
43893;SDS011;29556;50.846;4.442;2022-10-20T01:48:02;3.65;;;2.15;;
43893;SDS011;29556;50.846;4.442;2022-10-20T01:50:30;2.08;;;1.50;;
43893;SDS011;29556;50.846;4.442;2022-10-20T01:52:58;4.68;;;1.08;;
43893;SDS011;29556;50.846;4.442;2022-10-20T01:55:24;3.67;;;1.60;;
43893;SDS011;29556;50.846;4.442;2022-10-20T02:00:40;4.53;;;2.22;;
43893;SDS011;29556;50.846;4.442;2022-10-20T02:05:59;2.90;;;1.35;;
43893;SDS011;29556;50.846;4.442;2022-10-20T02:08:47;3.78;;;1.52;;
43893;SDS011;29556;50.846;4.442;2022-10-20T02:12:00;2.85;;;1.60;;
43893;SDS011;29556;50.846;4.442;2022-10-20T02:14:20;1.50;;;1.00;;
43893;SDS011;29556;50.846;4.442;2022-10-20T02:16:49;3.45;;;1.70;;
43893;SDS011;29556;50.846;4.442;2022-10-20T02:19:22;1.98;;;1.17;;
43893;SDS011;29556;50.846;4.442;2022-10-20T02:21:50;3.17;;;1.58;;
43893;SDS011;29556;50.846;4.442;2022-10-20T02:24:18;2.95;;;1.65;;
43893;SDS011;29556;50.846;4.442;2022-10-20T02:26:48;4.97;;;1.63;;
43893;SDS011;29556;50.846;4.442;2022-10-20T02:29:19;6.28;;;1.58;;
43893;SDS011;29556;50.846;4.442;2022-10-20T02:31:52;3.03;;;1.13;;
43893;SDS011;29556;50.846;4.442;2022-10-20T02:34:20;3.45;;;2.05;;
43893;SDS011;29556;50.846;4.442;2022-10-20T02:36:53;2.70;;;1.30;;
43893;SDS011;29556;50.846;4.442;2022-10-20T02:39:21;2.78;;;1.20;;
43893;SDS011;29556;50.846;4.442;2022-10-20T02:41:48;2.13;;;1.30;;
43893;SDS011;29556;50.846;4.442;2022-10-20T02:44:15;2.03;;;1.13;;
43893;SDS011;29556;50.846;4.442;2022-10-20T02:46:41;4.88;;;1.73;;
43893;SDS011;29556;50.846;4.442;2022-10-20T02:49:09;4.43;;;1.88;;
43893;SDS011;29556;50.846;4.442;2022-10-20T02:51:34;6.47;;;1.83;;
43893;SDS011;29556;50.846;4.442;2022-10-20T02:54:00;5.28;;;2.22;;
43893;SDS011;29556;50.846;4.442;2022-10-20T02:56:27;2.90;;;1.10;;
43893;SDS011;29556;50.846;4.442;2022-10-20T02:58:52;2.17;;;1.33;;
43893;SDS011;29556;50.846;4.442;2022-10-20T03:01:18;5.35;;;1.45;;
43893;SDS011;29556;50.846;4.442;2022-10-20T03:03:44;3.33;;;1.20;;
43893;SDS011;29556;50.846;4.442;2022-10-20T03:06:11;2.63;;;1.27;;
43893;SDS011;29556;50.846;4.442;2022-10-20T03:08:38;2.38;;;1.83;;
43893;SDS011;29556;50.846;4.442;2022-10-20T03:11:05;2.55;;;1.25;;
43893;SDS011;29556;50.846;4.442;2022-10-20T03:13:31;2.72;;;1.25;;
43893;SDS011;29556;50.846;4.442;2022-10-20T03:15:57;2.25;;;0.93;;
43893;SDS011;29556;50.846;4.442;2022-10-20T03:18:24;2.95;;;1.50;;
43893;SDS011;29556;50.846;4.442;2022-10-20T03:20:51;2.88;;;1.23;;
43893;SDS011;29556;50.846;4.442;2022-10-20T03:23:19;3.38;;;1.25;;
43893;SDS011;29556;50.846;4.442;2022-10-20T03:25:46;4.82;;;1.15;;
43893;SDS011;29556;50.846;4.442;2022-10-20T03:28:12;1.35;;;1.25;;
43893;SDS011;29556;50.846;4.442;2022-10-20T03:30:38;1.90;;;1.25;;
43893;SDS011;29556;50.846;4.442;2022-10-20T03:33:04;3.50;;;1.45;;
43893;SDS011;29556;50.846;4.442;2022-10-20T03:35:31;1.75;;;1.20;;
43893;SDS011;29556;50.846;4.442;2022-10-20T03:37:57;3.17;;;1.40;;
43893;SDS011;29556;50.846;4.442;2022-10-20T03:40:23;5.40;;;1.30;;
43893;SDS011;29556;50.846;4.442;2022-10-20T03:42:52;3.90;;;1.23;;
43893;SDS011;29556;50.846;4.442;2022-10-20T03:45:21;2.13;;;1.10;;
43893;SDS011;29556;50.846;4.442;2022-10-20T03:47:47;2.38;;;1.23;;
43893;SDS011;29556;50.846;4.442;2022-10-20T03:50:14;1.95;;;0.95;;
43893;SDS011;29556;50.846;4.442;2022-10-20T03:52:42;3.70;;;1.70;;
43893;SDS011;29556;50.846;4.442;2022-10-20T03:55:08;3.63;;;1.52;;
43893;SDS011;29556;50.846;4.442;2022-10-20T03:57:35;1.88;;;1.08;;
43893;SDS011;29556;50.846;4.442;2022-10-20T04:00:03;2.15;;;1.10;;
43893;SDS011;29556;50.846;4.442;2022-10-20T04:02:32;1.63;;;0.93;;
43893;SDS011;29556;50.846;4.442;2022-10-20T04:05:03;3.97;;;1.17;;
43893;SDS011;29556;50.846;4.442;2022-10-20T04:07:30;1.35;;;1.08;;
43893;SDS011;29556;50.846;4.442;2022-10-20T04:09:57;3.75;;;2.13;;
43893;SDS011;29556;50.846;4.442;2022-10-20T04:12:23;2.67;;;1.27;;
43893;SDS011;29556;50.846;4.442;2022-10-20T04:14:50;4.38;;;1.25;;
43893;SDS011;29556;50.846;4.442;2022-10-20T04:17:17;3.00;;;1.58;;
43893;SDS011;29556;50.846;4.442;2022-10-20T04:19:44;3.28;;;1.05;;
43893;SDS011;29556;50.846;4.442;2022-10-20T04:22:10;3.53;;;1.27;;
43893;SDS011;29556;50.846;4.442;2022-10-20T04:24:38;3.58;;;1.45;;
43893;SDS011;29556;50.846;4.442;2022-10-20T04:27:04;2.05;;;1.20;;
43893;SDS011;29556;50.846;4.442;2022-10-20T04:29:31;1.90;;;1.23;;
43893;SDS011;29556;50.846;4.442;2022-10-20T04:31:57;3.10;;;1.15;;
43893;SDS011;29556;50.846;4.442;2022-10-20T04:34:26;2.22;;;1.10;;
43893;SDS011;29556;50.846;4.442;2022-10-20T04:36:53;2.85;;;1.23;;
43893;SDS011;29556;50.846;4.442;2022-10-20T04:39:20;4.10;;;1.38;;
43893;SDS011;29556;50.846;4.442;2022-10-20T04:41:47;2.28;;;1.25;;
43893;SDS011;29556;50.846;4.442;2022-10-20T04:44:13;2.92;;;1.15;;
43893;SDS011;29556;50.846;4.442;2022-10-20T04:46:40;2.92;;;1.50;;
43893;SDS011;29556;50.846;4.442;2022-10-20T04:49:06;2.95;;;1.58;;
43893;SDS011;29556;50.846;4.442;2022-10-20T04:51:33;4.43;;;1.52;;
43893;SDS011;29556;50.846;4.442;2022-10-20T04:54:03;2.85;;;1.42;;
43893;SDS011;29556;50.846;4.442;2022-10-20T04:56:30;2.83;;;1.35;;
43893;SDS011;29556;50.846;4.442;2022-10-20T04:58:56;2.08;;;1.10;;
43893;SDS011;29556;50.846;4.442;2022-10-20T05:01:26;2.38;;;1.13;;
43893;SDS011;29556;50.846;4.442;2022-10-20T05:03:53;2.75;;;1.17;;
43893;SDS011;29556;50.846;4.442;2022-10-20T05:06:26;1.50;;;0.85;;
43893;SDS011;29556;50.846;4.442;2022-10-20T05:08:55;0.95;;;0.90;;
43893;SDS011;29556;50.846;4.442;2022-10-20T05:11:23;2.78;;;1.80;;
43893;SDS011;29556;50.846;4.442;2022-10-20T05:13:51;1.77;;;0.98;;
43893;SDS011;29556;50.846;4.442;2022-10-20T05:16:18;3.67;;;1.90;;
43893;SDS011;29556;50.846;4.442;2022-10-20T05:18:44;3.40;;;1.73;;
43893;SDS011;29556;50.846;4.442;2022-10-20T05:21:12;1.65;;;1.23;;
43893;SDS011;29556;50.846;4.442;2022-10-20T05:23:40;3.50;;;1.85;;
43893;SDS011;29556;50.846;4.442;2022-10-20T05:26:11;2.22;;;1.65;;
43893;SDS011;29556;50.846;4.442;2022-10-20T05:28:42;1.55;;;1.10;;
43893;SDS011;29556;50.846;4.442;2022-10-20T05:31:13;3.10;;;1.88;;
43893;SDS011;29556;50.846;4.442;2022-10-20T05:33:44;1.38;;;1.02;;
43893;SDS011;29556;50.846;4.442;2022-10-20T05:36:19;0.85;;;0.82;;
43893;SDS011;29556;50.846;4.442;2022-10-20T05:38:50;2.38;;;1.15;;
43893;SDS011;29556;50.846;4.442;2022-10-20T05:41:24;2.50;;;0.98;;
43893;SDS011;29556;50.846;4.442;2022-10-20T05:43:52;1.85;;;1.00;;
43893;SDS011;29556;50.846;4.442;2022-10-20T05:46:21;2.17;;;1.13;;
43893;SDS011;29556;50.846;4.442;2022-10-20T05:48:47;1.77;;;0.93;;
43893;SDS011;29556;50.846;4.442;2022-10-20T05:51:18;1.67;;;0.95;;
43893;SDS011;29556;50.846;4.442;2022-10-20T05:53:45;1.38;;;0.63;;
43893;SDS011;29556;50.846;4.442;2022-10-20T05:56:12;2.50;;;1.58;;
43893;SDS011;29556;50.846;4.442;2022-10-20T05:58:39;1.95;;;1.00;;
43893;SDS011;29556;50.846;4.442;2022-10-20T06:01:11;0.68;;;0.57;;
43893;SDS011;29556;50.846;4.442;2022-10-20T06:03:41;1.65;;;1.08;;
43893;SDS011;29556;50.846;4.442;2022-10-20T06:06:15;6.20;;;1.10;;
43893;SDS011;29556;50.846;4.442;2022-10-20T06:08:42;1.33;;;1.02;;
43893;SDS011;29556;50.846;4.442;2022-10-20T06:11:08;2.10;;;1.27;;
43893;SDS011;29556;50.846;4.442;2022-10-20T06:13:36;2.10;;;1.05;;
43893;SDS011;29556;50.846;4.442;2022-10-20T06:16:05;3.22;;;0.88;;
43893;SDS011;29556;50.846;4.442;2022-10-20T06:18:32;2.92;;;1.10;;
43893;SDS011;29556;50.846;4.442;2022-10-20T06:21:02;1.23;;;0.88;;
43893;SDS011;29556;50.846;4.442;2022-10-20T06:23:31;1.65;;;0.85;;
43893;SDS011;29556;50.846;4.442;2022-10-20T06:26:04;7.72;;;1.30;;
43893;SDS011;29556;50.846;4.442;2022-10-20T06:28:41;4.00;;;1.73;;
43893;SDS011;29556;50.846;4.442;2022-10-20T06:31:18;1.73;;;0.90;;
43893;SDS011;29556;50.846;4.442;2022-10-20T06:33:48;3.03;;;1.33;;
43893;SDS011;29556;50.846;4.442;2022-10-20T06:36:15;3.55;;;1.10;;
43893;SDS011;29556;50.846;4.442;2022-10-20T06:38:41;1.58;;;1.33;;
43893;SDS011;29556;50.846;4.442;2022-10-20T06:41:08;1.80;;;0.90;;
43893;SDS011;29556;50.846;4.442;2022-10-20T06:43:37;2.67;;;1.00;;
43893;SDS011;29556;50.846;4.442;2022-10-20T06:46:06;1.30;;;0.80;;
43893;SDS011;29556;50.846;4.442;2022-10-20T06:51:04;3.28;;;0.95;;
43893;SDS011;29556;50.846;4.442;2022-10-20T06:53:49;1.60;;;0.77;;
43893;SDS011;29556;50.846;4.442;2022-10-20T06:56:16;2.05;;;0.98;;
43893;SDS011;29556;50.846;4.442;2022-10-20T06:58:44;1.67;;;0.90;;
43893;SDS011;29556;50.846;4.442;2022-10-20T07:01:12;2.30;;;1.00;;
43893;SDS011;29556;50.846;4.442;2022-10-20T07:03:44;1.80;;;1.42;;
43893;SDS011;29556;50.846;4.442;2022-10-20T07:06:13;3.58;;;0.82;;
43893;SDS011;29556;50.846;4.442;2022-10-20T07:08:40;1.45;;;0.82;;
43893;SDS011;29556;50.846;4.442;2022-10-20T07:11:07;0.80;;;0.65;;
43893;SDS011;29556;50.846;4.442;2022-10-20T07:13:33;2.70;;;0.88;;
43893;SDS011;29556;50.846;4.442;2022-10-20T07:16:03;1.50;;;0.90;;
43893;SDS011;29556;50.846;4.442;2022-10-20T07:18:32;2.55;;;1.27;;
43893;SDS011;29556;50.846;4.442;2022-10-20T07:21:02;2.40;;;1.20;;
43893;SDS011;29556;50.846;4.442;2022-10-20T07:23:30;1.80;;;1.20;;
43893;SDS011;29556;50.846;4.442;2022-10-20T07:26:04;1.42;;;1.00;;
43893;SDS011;29556;50.846;4.442;2022-10-20T07:28:35;2.47;;;1.00;;
43893;SDS011;29556;50.846;4.442;2022-10-20T07:31:04;1.42;;;0.95;;
43893;SDS011;29556;50.846;4.442;2022-10-20T07:33:32;1.30;;;1.00;;
43893;SDS011;29556;50.846;4.442;2022-10-20T07:35:58;1.65;;;1.05;;
43893;SDS011;29556;50.846;4.442;2022-10-20T07:38:24;6.28;;;1.02;;
43893;SDS011;29556;50.846;4.442;2022-10-20T07:40:51;1.65;;;1.13;;
43893;SDS011;29556;50.846;4.442;2022-10-20T07:43:17;1.83;;;0.80;;
43893;SDS011;29556;50.846;4.442;2022-10-20T07:45:43;1.30;;;0.77;;
43893;SDS011;29556;50.846;4.442;2022-10-20T07:48:09;3.15;;;1.25;;
43893;SDS011;29556;50.846;4.442;2022-10-20T07:50:37;1.65;;;0.80;;
43893;SDS011;29556;50.846;4.442;2022-10-20T07:53:04;2.10;;;1.02;;
43893;SDS011;29556;50.846;4.442;2022-10-20T07:55:36;0.55;;;0.50;;
43893;SDS011;29556;50.846;4.442;2022-10-20T07:58:02;1.85;;;0.85;;
43893;SDS011;29556;50.846;4.442;2022-10-20T08:00:27;2.55;;;1.10;;
43893;SDS011;29556;50.846;4.442;2022-10-20T08:02:53;1.35;;;1.00;;
43893;SDS011;29556;50.846;4.442;2022-10-20T08:05:19;1.60;;;1.10;;
43893;SDS011;29556;50.846;4.442;2022-10-20T08:07:45;2.63;;;1.02;;
43893;SDS011;29556;50.846;4.442;2022-10-20T08:10:10;2.80;;;1.10;;
43893;SDS011;29556;50.846;4.442;2022-10-20T08:12:36;1.42;;;0.80;;
43893;SDS011;29556;50.846;4.442;2022-10-20T08:15:03;1.67;;;1.05;;
43893;SDS011;29556;50.846;4.442;2022-10-20T08:17:29;3.72;;;1.00;;
43893;SDS011;29556;50.846;4.442;2022-10-20T08:19:56;4.28;;;1.27;;
43893;SDS011;29556;50.846;4.442;2022-10-20T08:22:22;1.75;;;1.13;;
43893;SDS011;29556;50.846;4.442;2022-10-20T08:24:47;3.08;;;1.63;;
43893;SDS011;29556;50.846;4.442;2022-10-20T08:27:13;1.80;;;1.10;;
43893;SDS011;29556;50.846;4.442;2022-10-20T08:29:45;1.33;;;1.05;;
43893;SDS011;29556;50.846;4.442;2022-10-20T08:32:13;1.25;;;1.10;;
43893;SDS011;29556;50.846;4.442;2022-10-20T08:34:39;1.25;;;0.90;;
43893;SDS011;29556;50.846;4.442;2022-10-20T08:37:09;1.90;;;0.80;;
43893;SDS011;29556;50.846;4.442;2022-10-20T08:39:35;2.03;;;1.00;;
43893;SDS011;29556;50.846;4.442;2022-10-20T08:42:01;3.25;;;1.00;;
43893;SDS011;29556;50.846;4.442;2022-10-20T08:44:30;2.63;;;0.95;;
43893;SDS011;29556;50.846;4.442;2022-10-20T08:47:00;1.95;;;1.10;;
43893;SDS011;29556;50.846;4.442;2022-10-20T08:49:32;2.08;;;1.00;;
43893;SDS011;29556;50.846;4.442;2022-10-20T08:52:01;5.95;;;1.27;;
43893;SDS011;29556;50.846;4.442;2022-10-20T08:54:27;2.80;;;0.85;;
43893;SDS011;29556;50.846;4.442;2022-10-20T08:56:53;1.10;;;1.00;;
43893;SDS011;29556;50.846;4.442;2022-10-20T08:59:21;1.85;;;0.80;;
43893;SDS011;29556;50.846;4.442;2022-10-20T09:01:58;1.90;;;1.02;;
43893;SDS011;29556;50.846;4.442;2022-10-20T09:04:40;3.03;;;1.08;;
43893;SDS011;29556;50.846;4.442;2022-10-20T09:12:43;3.22;;;1.60;;
43893;SDS011;29556;50.846;4.442;2022-10-20T09:15:11;2.75;;;1.20;;
43893;SDS011;29556;50.846;4.442;2022-10-20T09:17:45;5.85;;;1.70;;
43893;SDS011;29556;50.846;4.442;2022-10-20T09:20:16;3.03;;;1.40;;
43893;SDS011;29556;50.846;4.442;2022-10-20T09:22:46;7.07;;;2.13;;
43893;SDS011;29556;50.846;4.442;2022-10-20T09:25:13;2.15;;;0.90;;
43893;SDS011;29556;50.846;4.442;2022-10-20T09:27:41;1.10;;;1.00;;
43893;SDS011;29556;50.846;4.442;2022-10-20T09:32:53;5.03;;;1.27;;
43893;SDS011;29556;50.846;4.442;2022-10-20T09:38:00;2.10;;;1.23;;
43893;SDS011;29556;50.846;4.442;2022-10-20T09:40:52;1.70;;;1.23;;
43893;SDS011;29556;50.846;4.442;2022-10-20T09:43:32;1.77;;;1.45;;
43893;SDS011;29556;50.846;4.442;2022-10-20T09:45:59;2.13;;;1.08;;
43893;SDS011;29556;50.846;4.442;2022-10-20T09:48:32;2.78;;;1.08;;
43893;SDS011;29556;50.846;4.442;2022-10-20T09:51:00;1.85;;;1.50;;
43893;SDS011;29556;50.846;4.442;2022-10-20T09:53:31;1.95;;;1.13;;
43893;SDS011;29556;50.846;4.442;2022-10-20T09:56:00;2.03;;;1.10;;
43893;SDS011;29556;50.846;4.442;2022-10-20T09:58:30;2.65;;;1.73;;
43893;SDS011;29556;50.846;4.442;2022-10-20T10:01:04;1.38;;;1.00;;
43893;SDS011;29556;50.846;4.442;2022-10-20T10:03:41;0.82;;;0.68;;
43893;SDS011;29556;50.846;4.442;2022-10-20T10:06:28;1.52;;;0.80;;
43893;SDS011;29556;50.846;4.442;2022-10-20T10:11:58;2.10;;;1.20;;
43893;SDS011;29556;50.846;4.442;2022-10-20T10:14:25;2.53;;;1.25;;
43893;SDS011;29556;50.846;4.442;2022-10-20T10:16:51;1.23;;;1.10;;
43893;SDS011;29556;50.846;4.442;2022-10-20T10:19:18;1.95;;;1.13;;
43893;SDS011;29556;50.846;4.442;2022-10-20T10:21:52;3.92;;;2.03;;
43893;SDS011;29556;50.846;4.442;2022-10-20T10:24:37;3.45;;;1.30;;
43893;SDS011;29556;50.846;4.442;2022-10-20T10:32:54;1.58;;;1.27;;
43893;SDS011;29556;50.846;4.442;2022-10-20T10:35:28;1.77;;;1.30;;
43893;SDS011;29556;50.846;4.442;2022-10-20T10:38:04;2.95;;;1.45;;
43893;SDS011;29556;50.846;4.442;2022-10-20T10:43:23;1.38;;;1.27;;
43893;SDS011;29556;50.846;4.442;2022-10-20T10:45:59;2.15;;;1.15;;
43893;SDS011;29556;50.846;4.442;2022-10-20T10:49:22;2.03;;;1.13;;
43893;SDS011;29556;50.846;4.442;2022-10-20T10:51:50;3.40;;;1.60;;
43893;SDS011;29556;50.846;4.442;2022-10-20T10:59:57;3.00;;;1.17;;
43893;SDS011;29556;50.846;4.442;2022-10-20T11:08:18;2.67;;;1.42;;
43893;SDS011;29556;50.846;4.442;2022-10-20T11:11:02;1.08;;;0.98;;
43893;SDS011;29556;50.846;4.442;2022-10-20T11:19:35;0.85;;;0.85;;
43893;SDS011;29556;50.846;4.442;2022-10-20T11:22:27;2.33;;;1.92;;
43893;SDS011;29556;50.846;4.442;2022-10-20T11:25:00;0.75;;;0.65;;
43893;SDS011;29556;50.846;4.442;2022-10-20T11:27:38;1.27;;;0.90;;
43893;SDS011;29556;50.846;4.442;2022-10-20T11:30:14;1.90;;;1.42;;
43893;SDS011;29556;50.846;4.442;2022-10-20T11:32:51;2.22;;;1.20;;
43893;SDS011;29556;50.846;4.442;2022-10-20T11:40:43;2.10;;;1.00;;
43893;SDS011;29556;50.846;4.442;2022-10-20T11:43:36;1.10;;;1.00;;
43893;SDS011;29556;50.846;4.442;2022-10-20T11:46:08;1.75;;;1.13;;
43893;SDS011;29556;50.846;4.442;2022-10-20T11:56:47;1.10;;;1.00;;
43893;SDS011;29556;50.846;4.442;2022-10-20T12:02:17;2.15;;;0.90;;
43893;SDS011;29556;50.846;4.442;2022-10-20T12:16:04;1.52;;;0.85;;
43893;SDS011;29556;50.846;4.442;2022-10-20T12:18:31;3.08;;;0.95;;
43893;SDS011;29556;50.846;4.442;2022-10-20T12:21:00;1.05;;;0.82;;
43893;SDS011;29556;50.846;4.442;2022-10-20T12:28:55;0.93;;;0.50;;
43893;SDS011;29556;50.846;4.442;2022-10-20T12:34:27;2.67;;;0.38;;
43893;SDS011;29556;50.846;4.442;2022-10-20T12:37:18;0.77;;;0.60;;
43893;SDS011;29556;50.846;4.442;2022-10-20T12:42:27;3.13;;;0.60;;
43893;SDS011;29556;50.846;4.442;2022-10-20T12:44:55;2.42;;;0.60;;
43893;SDS011;29556;50.846;4.442;2022-10-20T12:47:30;0.65;;;0.63;;
43893;SDS011;29556;50.846;4.442;2022-10-20T12:49:59;2.85;;;1.40;;
43893;SDS011;29556;50.846;4.442;2022-10-20T12:52:30;1.17;;;0.47;;
43893;SDS011;29556;50.846;4.442;2022-10-20T12:55:03;0.32;;;0.20;;
43893;SDS011;29556;50.846;4.442;2022-10-20T13:06:00;2.35;;;0.57;;
43893;SDS011;29556;50.846;4.442;2022-10-20T13:08:43;0.55;;;0.47;;
43893;SDS011;29556;50.846;4.442;2022-10-20T13:16:37;1.15;;;0.68;;
43893;SDS011;29556;50.846;4.442;2022-10-20T13:19:25;0.63;;;0.50;;
43893;SDS011;29556;50.846;4.442;2022-10-20T13:22:00;2.25;;;0.55;;
43893;SDS011;29556;50.846;4.442;2022-10-20T13:24:53;1.08;;;0.60;;
43893;SDS011;29556;50.846;4.442;2022-10-20T13:27:21;0.63;;;0.47;;
43893;SDS011;29556;50.846;4.442;2022-10-20T13:29:47;1.33;;;0.40;;
43893;SDS011;29556;50.846;4.442;2022-10-20T13:35:20;2.22;;;0.30;;
43893;SDS011;29556;50.846;4.442;2022-10-20T13:40:25;0.45;;;0.38;;
43893;SDS011;29556;50.846;4.442;2022-10-20T13:49:04;1.00;;;0.35;;
43893;SDS011;29556;50.846;4.442;2022-10-20T13:51:47;1.63;;;0.88;;
43893;SDS011;29556;50.846;4.442;2022-10-20T13:54:23;1.52;;;1.33;;
43893;SDS011;29556;50.846;4.442;2022-10-20T13:56:54;0.57;;;0.57;;
43893;SDS011;29556;50.846;4.442;2022-10-20T13:59:21;4.57;;;0.40;;
43893;SDS011;29556;50.846;4.442;2022-10-20T14:01:53;0.20;;;0.20;;
43893;SDS011;29556;50.846;4.442;2022-10-20T14:07:09;1.65;;;0.50;;
43893;SDS011;29556;50.846;4.442;2022-10-20T14:09:38;2.55;;;1.35;;
43893;SDS011;29556;50.846;4.442;2022-10-20T14:12:09;1.42;;;1.15;;
43893;SDS011;29556;50.846;4.442;2022-10-20T14:14:41;0.50;;;0.50;;
43893;SDS011;29556;50.846;4.442;2022-10-20T14:17:14;3.30;;;0.87;;
43893;SDS011;29556;50.846;4.442;2022-10-20T14:19:46;0.75;;;0.75;;
43893;SDS011;29556;50.846;4.442;2022-10-20T14:22:23;2.75;;;0.40;;
43893;SDS011;29556;50.846;4.442;2022-10-20T14:24:53;0.63;;;0.40;;
43893;SDS011;29556;50.846;4.442;2022-10-20T14:27:22;2.38;;;0.50;;
43893;SDS011;29556;50.846;4.442;2022-10-20T14:29:53;1.02;;;0.40;;
43893;SDS011;29556;50.846;4.442;2022-10-20T14:32:29;0.40;;;0.32;;
43893;SDS011;29556;50.846;4.442;2022-10-20T14:40:33;0.50;;;0.50;;
43893;SDS011;29556;50.846;4.442;2022-10-20T14:45:59;0.82;;;0.32;;
43893;SDS011;29556;50.846;4.442;2022-10-20T14:48:50;0.50;;;0.50;;
43893;SDS011;29556;50.846;4.442;2022-10-20T14:59:51;0.60;;;0.52;;
43893;SDS011;29556;50.846;4.442;2022-10-20T15:02:35;3.58;;;0.90;;
43893;SDS011;29556;50.846;4.442;2022-10-20T15:07:48;0.13;;;0.13;;
43893;SDS011;29556;50.846;4.442;2022-10-20T15:10:14;0.35;;;0.35;;
43893;SDS011;29556;50.846;4.442;2022-10-20T15:12:42;1.15;;;0.77;;
43893;SDS011;29556;50.846;4.442;2022-10-20T15:17:40;0.30;;;0.30;;
43893;SDS011;29556;50.846;4.442;2022-10-20T15:23:04;0.32;;;0.28;;
43893;SDS011;29556;50.846;4.442;2022-10-20T15:25:31;1.00;;;0.38;;
43893;SDS011;29556;50.846;4.442;2022-10-20T15:28:18;0.65;;;0.38;;
43893;SDS011;29556;50.846;4.442;2022-10-20T15:30:49;1.65;;;0.88;;
43893;SDS011;29556;50.846;4.442;2022-10-20T15:33:14;0.63;;;0.40;;
43893;SDS011;29556;50.846;4.442;2022-10-20T15:35:40;2.53;;;0.30;;
43893;SDS011;29556;50.846;4.442;2022-10-20T15:38:10;0.50;;;0.38;;
43893;SDS011;29556;50.846;4.442;2022-10-20T15:40:36;0.70;;;0.30;;
43893;SDS011;29556;50.846;4.442;2022-10-20T15:43:02;0.32;;;0.20;;
43893;SDS011;29556;50.846;4.442;2022-10-20T15:45:30;0.73;;;0.43;;
43893;SDS011;29556;50.846;4.442;2022-10-20T15:48:03;2.03;;;0.35;;
43893;SDS011;29556;50.846;4.442;2022-10-20T15:50:29;1.63;;;0.28;;
43893;SDS011;29556;50.846;4.442;2022-10-20T15:52:58;0.30;;;0.30;;
43893;SDS011;29556;50.846;4.442;2022-10-20T15:55:29;0.40;;;0.40;;
43893;SDS011;29556;50.846;4.442;2022-10-20T15:57:56;0.40;;;0.40;;
43893;SDS011;29556;50.846;4.442;2022-10-20T16:00:23;0.55;;;0.28;;
43893;SDS011;29556;50.846;4.442;2022-10-20T16:02:50;0.75;;;0.43;;
43893;SDS011;29556;50.846;4.442;2022-10-20T16:05:20;1.58;;;1.27;;
43893;SDS011;29556;50.846;4.442;2022-10-20T16:07:47;0.30;;;0.20;;
43893;SDS011;29556;50.846;4.442;2022-10-20T16:10:20;0.40;;;0.35;;
43893;SDS011;29556;50.846;4.442;2022-10-20T16:12:49;0.30;;;0.30;;
43893;SDS011;29556;50.846;4.442;2022-10-20T16:15:14;1.38;;;0.60;;
43893;SDS011;29556;50.846;4.442;2022-10-20T16:17:41;0.88;;;0.73;;
43893;SDS011;29556;50.846;4.442;2022-10-20T16:20:06;0.50;;;0.30;;
43893;SDS011;29556;50.846;4.442;2022-10-20T16:22:33;1.45;;;0.50;;
43893;SDS011;29556;50.846;4.442;2022-10-20T16:24:59;0.47;;;0.30;;
43893;SDS011;29556;50.846;4.442;2022-10-20T16:27:26;0.35;;;0.25;;
43893;SDS011;29556;50.846;4.442;2022-10-20T16:29:53;0.22;;;0.22;;
43893;SDS011;29556;50.846;4.442;2022-10-20T16:32:26;0.77;;;0.50;;
43893;SDS011;29556;50.846;4.442;2022-10-20T16:34:52;0.73;;;0.55;;
43893;SDS011;29556;50.846;4.442;2022-10-20T16:37:17;0.40;;;0.40;;
43893;SDS011;29556;50.846;4.442;2022-10-20T16:39:43;2.15;;;1.63;;
43893;SDS011;29556;50.846;4.442;2022-10-20T16:42:09;0.98;;;0.57;;
43893;SDS011;29556;50.846;4.442;2022-10-20T16:44:34;0.77;;;0.65;;
43893;SDS011;29556;50.846;4.442;2022-10-20T16:47:00;1.58;;;1.00;;
43893;SDS011;29556;50.846;4.442;2022-10-20T16:49:28;1.17;;;0.55;;
43893;SDS011;29556;50.846;4.442;2022-10-20T16:51:56;1.00;;;0.57;;
43893;SDS011;29556;50.846;4.442;2022-10-20T16:54:31;0.63;;;0.63;;
43893;SDS011;29556;50.846;4.442;2022-10-20T16:56:56;0.30;;;0.30;;
43893;SDS011;29556;50.846;4.442;2022-10-20T16:59:22;0.52;;;0.40;;
43893;SDS011;29556;50.846;4.442;2022-10-20T17:01:52;0.28;;;0.28;;
43893;SDS011;29556;50.846;4.442;2022-10-20T17:04:20;0.40;;;0.40;;
43893;SDS011;29556;50.846;4.442;2022-10-20T17:06:49;0.40;;;0.40;;
43893;SDS011;29556;50.846;4.442;2022-10-20T17:09:14;0.52;;;0.38;;
43893;SDS011;29556;50.846;4.442;2022-10-20T17:11:40;0.35;;;0.35;;
43893;SDS011;29556;50.846;4.442;2022-10-20T17:14:06;0.40;;;0.40;;
43893;SDS011;29556;50.846;4.442;2022-10-20T17:16:33;0.85;;;0.85;;
43893;SDS011;29556;50.846;4.442;2022-10-20T17:19:06;1.35;;;0.80;;
43893;SDS011;29556;50.846;4.442;2022-10-20T17:21:35;3.70;;;1.65;;
43893;SDS011;29556;50.846;4.442;2022-10-20T17:24:01;1.73;;;1.10;;
43893;SDS011;29556;50.846;4.442;2022-10-20T17:28:57;1.10;;;0.80;;
43893;SDS011;29556;50.846;4.442;2022-10-20T17:31:24;0.50;;;0.47;;
43893;SDS011;29556;50.846;4.442;2022-10-20T17:33:52;1.25;;;0.85;;
43893;SDS011;29556;50.846;4.442;2022-10-20T17:36:18;0.85;;;0.77;;
43893;SDS011;29556;50.846;4.442;2022-10-20T17:38:56;0.75;;;0.55;;
43893;SDS011;29556;50.846;4.442;2022-10-20T17:41:23;0.63;;;0.63;;
43893;SDS011;29556;50.846;4.442;2022-10-20T17:43:50;1.55;;;1.08;;
43893;SDS011;29556;50.846;4.442;2022-10-20T17:46:17;0.68;;;0.68;;